sensor_id;sensor_type;location;lat;lon;timestamp;P1;durP1;ratioP1;P2;durP2;ratioP2
21999;SDS011;11164;48.818;2.322;2022-11-28T00:01:34;8.77;;;4.75;;
21999;SDS011;11164;48.818;2.322;2022-11-28T00:04:05;8.20;;;4.43;;
21999;SDS011;11164;48.818;2.322;2022-11-28T00:06:31;12.13;;;4.57;;
21999;SDS011;11164;48.818;2.322;2022-11-28T00:08:56;8.98;;;4.28;;
21999;SDS011;11164;48.818;2.322;2022-11-28T00:11:23;10.23;;;4.85;;
21999;SDS011;11164;48.818;2.322;2022-11-28T00:13:49;8.45;;;4.43;;
21999;SDS011;11164;48.818;2.322;2022-11-28T00:16:16;10.38;;;4.60;;
21999;SDS011;11164;48.818;2.322;2022-11-28T00:18:45;8.02;;;4.10;;
21999;SDS011;11164;48.818;2.322;2022-11-28T00:21:12;10.95;;;4.38;;
21999;SDS011;11164;48.818;2.322;2022-11-28T00:23:39;9.68;;;4.32;;
21999;SDS011;11164;48.818;2.322;2022-11-28T00:26:06;8.15;;;4.25;;
21999;SDS011;11164;48.818;2.322;2022-11-28T00:28:34;8.75;;;4.40;;
21999;SDS011;11164;48.818;2.322;2022-11-28T00:31:00;8.73;;;4.68;;
21999;SDS011;11164;48.818;2.322;2022-11-28T00:33:26;7.85;;;4.38;;
21999;SDS011;11164;48.818;2.322;2022-11-28T00:35:56;7.55;;;4.07;;
21999;SDS011;11164;48.818;2.322;2022-11-28T00:38:23;8.20;;;4.63;;
21999;SDS011;11164;48.818;2.322;2022-11-28T00:40:56;7.60;;;4.25;;
21999;SDS011;11164;48.818;2.322;2022-11-28T00:43:25;8.88;;;4.47;;
21999;SDS011;11164;48.818;2.322;2022-11-28T00:45:50;6.63;;;4.22;;
21999;SDS011;11164;48.818;2.322;2022-11-28T00:48:15;6.65;;;4.40;;
21999;SDS011;11164;48.818;2.322;2022-11-28T00:50:41;9.05;;;4.75;;
21999;SDS011;11164;48.818;2.322;2022-11-28T00:53:06;8.60;;;4.20;;
21999;SDS011;11164;48.818;2.322;2022-11-28T00:55:31;8.27;;;4.60;;
21999;SDS011;11164;48.818;2.322;2022-11-28T00:57:57;8.85;;;4.65;;
21999;SDS011;11164;48.818;2.322;2022-11-28T01:00:22;8.95;;;4.70;;
21999;SDS011;11164;48.818;2.322;2022-11-28T01:02:47;9.50;;;5.00;;
21999;SDS011;11164;48.818;2.322;2022-11-28T01:05:13;9.80;;;4.72;;
21999;SDS011;11164;48.818;2.322;2022-11-28T01:07:38;8.90;;;4.88;;
21999;SDS011;11164;48.818;2.322;2022-11-28T01:10:06;9.43;;;4.85;;
21999;SDS011;11164;48.818;2.322;2022-11-28T01:12:32;10.40;;;4.88;;
21999;SDS011;11164;48.818;2.322;2022-11-28T01:14:57;7.80;;;4.88;;
21999;SDS011;11164;48.818;2.322;2022-11-28T01:17:23;8.93;;;5.05;;
21999;SDS011;11164;48.818;2.322;2022-11-28T01:19:49;8.07;;;5.15;;
21999;SDS011;11164;48.818;2.322;2022-11-28T01:22:14;9.15;;;4.93;;
21999;SDS011;11164;48.818;2.322;2022-11-28T01:24:39;8.95;;;5.40;;
21999;SDS011;11164;48.818;2.322;2022-11-28T01:27:05;8.68;;;5.07;;
21999;SDS011;11164;48.818;2.322;2022-11-28T01:29:30;11.02;;;5.65;;
21999;SDS011;11164;48.818;2.322;2022-11-28T01:31:55;10.50;;;5.32;;
21999;SDS011;11164;48.818;2.322;2022-11-28T01:34:21;7.63;;;4.88;;
21999;SDS011;11164;48.818;2.322;2022-11-28T01:36:46;11.02;;;5.60;;
21999;SDS011;11164;48.818;2.322;2022-11-28T01:39:12;9.35;;;5.25;;
21999;SDS011;11164;48.818;2.322;2022-11-28T01:41:39;11.07;;;5.32;;
21999;SDS011;11164;48.818;2.322;2022-11-28T01:46:31;11.15;;;5.80;;
21999;SDS011;11164;48.818;2.322;2022-11-28T01:48:58;12.18;;;5.47;;
21999;SDS011;11164;48.818;2.322;2022-11-28T01:51:29;13.90;;;5.57;;
21999;SDS011;11164;48.818;2.322;2022-11-28T01:53:55;9.57;;;5.53;;
21999;SDS011;11164;48.818;2.322;2022-11-28T01:56:22;10.38;;;5.55;;
21999;SDS011;11164;48.818;2.322;2022-11-28T01:58:51;9.05;;;5.47;;
21999;SDS011;11164;48.818;2.322;2022-11-28T02:01:22;10.82;;;5.63;;
21999;SDS011;11164;48.818;2.322;2022-11-28T02:03:49;8.93;;;5.40;;
21999;SDS011;11164;48.818;2.322;2022-11-28T02:06:17;10.30;;;6.18;;
21999;SDS011;11164;48.818;2.322;2022-11-28T02:08:48;9.90;;;5.82;;
21999;SDS011;11164;48.818;2.322;2022-11-28T02:20:29;10.38;;;5.68;;
21999;SDS011;11164;48.818;2.322;2022-11-28T02:31:55;9.95;;;5.97;;
21999;SDS011;11164;48.818;2.322;2022-11-28T02:34:45;11.02;;;6.15;;
21999;SDS011;11164;48.818;2.322;2022-11-28T02:43:15;9.68;;;5.80;;
21999;SDS011;11164;48.818;2.322;2022-11-28T02:45:31;11.50;;;6.40;;
21999;SDS011;11164;48.818;2.322;2022-11-28T02:49:04;11.50;;;6.13;;
21999;SDS011;11164;48.818;2.322;2022-11-28T02:51:27;10.95;;;6.28;;
21999;SDS011;11164;48.818;2.322;2022-11-28T02:54:01;10.90;;;5.82;;
21999;SDS011;11164;48.818;2.322;2022-11-28T02:56:29;10.32;;;6.18;;
21999;SDS011;11164;48.818;2.322;2022-11-28T02:58:54;8.93;;;5.70;;
21999;SDS011;11164;48.818;2.322;2022-11-28T03:01:24;9.88;;;5.90;;
21999;SDS011;11164;48.818;2.322;2022-11-28T03:14:49;11.43;;;6.70;;
21999;SDS011;11164;48.818;2.322;2022-11-28T03:17:47;14.35;;;7.30;;
21999;SDS011;11164;48.818;2.322;2022-11-28T03:20:27;12.50;;;7.40;;
21999;SDS011;11164;48.818;2.322;2022-11-28T03:25:34;14.10;;;6.80;;
21999;SDS011;11164;48.818;2.322;2022-11-28T03:28:11;13.25;;;7.05;;
21999;SDS011;11164;48.818;2.322;2022-11-28T03:30:50;12.45;;;7.07;;
21999;SDS011;11164;48.818;2.322;2022-11-28T03:33:21;10.90;;;6.65;;
21999;SDS011;11164;48.818;2.322;2022-11-28T03:35:55;11.73;;;6.93;;
21999;SDS011;11164;48.818;2.322;2022-11-28T03:38:30;11.93;;;7.28;;
21999;SDS011;11164;48.818;2.322;2022-11-28T03:41:01;12.75;;;7.25;;
21999;SDS011;11164;48.818;2.322;2022-11-28T03:43:31;13.38;;;7.00;;
21999;SDS011;11164;48.818;2.322;2022-11-28T03:46:03;14.82;;;7.45;;
21999;SDS011;11164;48.818;2.322;2022-11-28T03:48:33;14.55;;;7.40;;
21999;SDS011;11164;48.818;2.322;2022-11-28T03:51:05;12.02;;;7.68;;
21999;SDS011;11164;48.818;2.322;2022-11-28T03:53:46;12.75;;;7.63;;
21999;SDS011;11164;48.818;2.322;2022-11-28T03:56:25;13.40;;;7.93;;
21999;SDS011;11164;48.818;2.322;2022-11-28T03:59:01;15.45;;;8.25;;
21999;SDS011;11164;48.818;2.322;2022-11-28T04:01:47;11.52;;;7.32;;
21999;SDS011;11164;48.818;2.322;2022-11-28T04:04:32;13.52;;;7.90;;
21999;SDS011;11164;48.818;2.322;2022-11-28T04:07:19;12.15;;;7.95;;
21999;SDS011;11164;48.818;2.322;2022-11-28T04:12:53;13.43;;;7.90;;
21999;SDS011;11164;48.818;2.322;2022-11-28T04:15:38;14.93;;;7.60;;
21999;SDS011;11164;48.818;2.322;2022-11-28T04:18:24;12.15;;;7.20;;
21999;SDS011;11164;48.818;2.322;2022-11-28T04:21:17;14.00;;;7.90;;
21999;SDS011;11164;48.818;2.322;2022-11-28T04:24:02;14.20;;;8.20;;
21999;SDS011;11164;48.818;2.322;2022-11-28T04:26:36;12.75;;;7.82;;
21999;SDS011;11164;48.818;2.322;2022-11-28T04:29:06;14.85;;;8.00;;
21999;SDS011;11164;48.818;2.322;2022-11-28T04:31:35;16.08;;;8.13;;
21999;SDS011;11164;48.818;2.322;2022-11-28T04:34:03;12.98;;;8.07;;
21999;SDS011;11164;48.818;2.322;2022-11-28T04:36:33;15.20;;;7.93;;
21999;SDS011;11164;48.818;2.322;2022-11-28T04:39:02;14.30;;;7.30;;
21999;SDS011;11164;48.818;2.322;2022-11-28T04:44:09;13.68;;;7.70;;
21999;SDS011;11164;48.818;2.322;2022-11-28T04:46:40;14.93;;;7.90;;
21999;SDS011;11164;48.818;2.322;2022-11-28T04:49:10;11.75;;;7.50;;
21999;SDS011;11164;48.818;2.322;2022-11-28T04:51:41;13.93;;;7.65;;
21999;SDS011;11164;48.818;2.322;2022-11-28T04:54:15;12.10;;;7.13;;
21999;SDS011;11164;48.818;2.322;2022-11-28T04:56:50;13.48;;;7.80;;
21999;SDS011;11164;48.818;2.322;2022-11-28T04:59:20;15.27;;;7.65;;
21999;SDS011;11164;48.818;2.322;2022-11-28T05:01:48;14.63;;;8.35;;
21999;SDS011;11164;48.818;2.322;2022-11-28T05:04:14;14.32;;;8.60;;
21999;SDS011;11164;48.818;2.322;2022-11-28T05:06:41;16.33;;;8.10;;
21999;SDS011;11164;48.818;2.322;2022-11-28T05:09:08;14.48;;;8.45;;
21999;SDS011;11164;48.818;2.322;2022-11-28T05:11:35;14.82;;;8.52;;
21999;SDS011;11164;48.818;2.322;2022-11-28T05:14:00;13.98;;;8.43;;
21999;SDS011;11164;48.818;2.322;2022-11-28T05:16:26;14.40;;;8.63;;
21999;SDS011;11164;48.818;2.322;2022-11-28T05:18:51;17.25;;;8.52;;
21999;SDS011;11164;48.818;2.322;2022-11-28T05:21:16;15.27;;;8.07;;
21999;SDS011;11164;48.818;2.322;2022-11-28T05:23:42;14.80;;;8.05;;
21999;SDS011;11164;48.818;2.322;2022-11-28T05:26:09;16.02;;;8.80;;
21999;SDS011;11164;48.818;2.322;2022-11-28T05:28:37;19.35;;;8.88;;
21999;SDS011;11164;48.818;2.322;2022-11-28T05:31:02;16.52;;;8.35;;
21999;SDS011;11164;48.818;2.322;2022-11-28T05:33:28;16.25;;;9.43;;
21999;SDS011;11164;48.818;2.322;2022-11-28T05:35:55;14.60;;;8.32;;
21999;SDS011;11164;48.818;2.322;2022-11-28T05:38:21;16.85;;;8.80;;
21999;SDS011;11164;48.818;2.322;2022-11-28T05:40:47;16.63;;;8.07;;
21999;SDS011;11164;48.818;2.322;2022-11-28T05:43:12;19.13;;;8.70;;
21999;SDS011;11164;48.818;2.322;2022-11-28T05:45:38;15.82;;;7.90;;
21999;SDS011;11164;48.818;2.322;2022-11-28T05:48:07;16.38;;;8.05;;
21999;SDS011;11164;48.818;2.322;2022-11-28T05:50:33;18.85;;;8.82;;
21999;SDS011;11164;48.818;2.322;2022-11-28T05:52:58;16.05;;;8.13;;
21999;SDS011;11164;48.818;2.322;2022-11-28T05:55:24;15.82;;;8.02;;
21999;SDS011;11164;48.818;2.322;2022-11-28T05:57:50;17.17;;;7.97;;
21999;SDS011;11164;48.818;2.322;2022-11-28T06:00:16;16.25;;;8.52;;
21999;SDS011;11164;48.818;2.322;2022-11-28T06:02:42;16.77;;;8.25;;
21999;SDS011;11164;48.818;2.322;2022-11-28T06:05:07;21.58;;;7.88;;
21999;SDS011;11164;48.818;2.322;2022-11-28T06:07:32;18.98;;;8.32;;
21999;SDS011;11164;48.818;2.322;2022-11-28T06:09:58;17.40;;;8.25;;
21999;SDS011;11164;48.818;2.322;2022-11-28T06:12:23;17.75;;;8.38;;
21999;SDS011;11164;48.818;2.322;2022-11-28T06:14:48;15.88;;;7.57;;
21999;SDS011;11164;48.818;2.322;2022-11-28T06:17:14;17.42;;;8.15;;
21999;SDS011;11164;48.818;2.322;2022-11-28T06:19:39;18.40;;;8.60;;
21999;SDS011;11164;48.818;2.322;2022-11-28T06:22:04;16.30;;;7.93;;
21999;SDS011;11164;48.818;2.322;2022-11-28T06:24:30;18.52;;;8.07;;
21999;SDS011;11164;48.818;2.322;2022-11-28T06:26:55;20.23;;;9.30;;
21999;SDS011;11164;48.818;2.322;2022-11-28T06:29:20;17.23;;;8.60;;
21999;SDS011;11164;48.818;2.322;2022-11-28T06:31:46;19.58;;;8.73;;
21999;SDS011;11164;48.818;2.322;2022-11-28T06:34:11;18.10;;;7.72;;
21999;SDS011;11164;48.818;2.322;2022-11-28T06:36:37;17.15;;;7.75;;
21999;SDS011;11164;48.818;2.322;2022-11-28T06:39:03;19.00;;;7.82;;
21999;SDS011;11164;48.818;2.322;2022-11-28T06:41:29;17.42;;;8.35;;
21999;SDS011;11164;48.818;2.322;2022-11-28T06:43:54;20.02;;;7.43;;
21999;SDS011;11164;48.818;2.322;2022-11-28T06:46:20;19.42;;;8.32;;
21999;SDS011;11164;48.818;2.322;2022-11-28T06:48:47;17.40;;;7.38;;
21999;SDS011;11164;48.818;2.322;2022-11-28T06:51:15;17.63;;;7.20;;
21999;SDS011;11164;48.818;2.322;2022-11-28T06:53:41;17.88;;;6.75;;
21999;SDS011;11164;48.818;2.322;2022-11-28T06:56:08;17.25;;;6.55;;
21999;SDS011;11164;48.818;2.322;2022-11-28T06:58:35;18.35;;;6.82;;
21999;SDS011;11164;48.818;2.322;2022-11-28T07:01:05;14.18;;;6.68;;
21999;SDS011;11164;48.818;2.322;2022-11-28T07:03:35;17.83;;;6.97;;
21999;SDS011;11164;48.818;2.322;2022-11-28T07:06:02;20.65;;;7.07;;
21999;SDS011;11164;48.818;2.322;2022-11-28T07:08:29;18.90;;;5.90;;
21999;SDS011;11164;48.818;2.322;2022-11-28T07:10:55;24.38;;;6.72;;
21999;SDS011;11164;48.818;2.322;2022-11-28T07:13:21;15.70;;;6.70;;
21999;SDS011;11164;48.818;2.322;2022-11-28T07:15:48;23.50;;;6.38;;
21999;SDS011;11164;48.818;2.322;2022-11-28T07:18:14;15.93;;;6.80;;
21999;SDS011;11164;48.818;2.322;2022-11-28T07:20:40;17.88;;;6.65;;
21999;SDS011;11164;48.818;2.322;2022-11-28T07:23:05;13.48;;;5.95;;
21999;SDS011;11164;48.818;2.322;2022-11-28T07:25:31;19.73;;;6.38;;
21999;SDS011;11164;48.818;2.322;2022-11-28T07:27:58;15.18;;;5.60;;
21999;SDS011;11164;48.818;2.322;2022-11-28T07:30:23;18.05;;;5.32;;
21999;SDS011;11164;48.818;2.322;2022-11-28T07:32:49;16.73;;;6.03;;
21999;SDS011;11164;48.818;2.322;2022-11-28T07:35:14;18.83;;;6.20;;
21999;SDS011;11164;48.818;2.322;2022-11-28T07:37:40;14.13;;;5.22;;
21999;SDS011;11164;48.818;2.322;2022-11-28T07:40:05;14.35;;;5.30;;
21999;SDS011;11164;48.818;2.322;2022-11-28T07:42:31;18.40;;;6.55;;
21999;SDS011;11164;48.818;2.322;2022-11-28T07:44:56;19.88;;;6.22;;
21999;SDS011;11164;48.818;2.322;2022-11-28T07:47:22;18.73;;;6.18;;
21999;SDS011;11164;48.818;2.322;2022-11-28T07:49:47;16.42;;;5.63;;
21999;SDS011;11164;48.818;2.322;2022-11-28T07:52:12;19.30;;;5.72;;
21999;SDS011;11164;48.818;2.322;2022-11-28T07:54:38;16.42;;;5.47;;
21999;SDS011;11164;48.818;2.322;2022-11-28T07:57:03;16.17;;;5.82;;
21999;SDS011;11164;48.818;2.322;2022-11-28T07:59:28;16.90;;;6.38;;
21999;SDS011;11164;48.818;2.322;2022-11-28T08:01:54;17.80;;;5.97;;
21999;SDS011;11164;48.818;2.322;2022-11-28T08:04:19;19.50;;;6.05;;
21999;SDS011;11164;48.818;2.322;2022-11-28T08:06:44;17.10;;;5.57;;
21999;SDS011;11164;48.818;2.322;2022-11-28T08:09:10;16.83;;;4.78;;
21999;SDS011;11164;48.818;2.322;2022-11-28T08:11:36;18.55;;;4.97;;
21999;SDS011;11164;48.818;2.322;2022-11-28T08:14:01;18.60;;;5.15;;
21999;SDS011;11164;48.818;2.322;2022-11-28T08:16:28;16.05;;;4.95;;
21999;SDS011;11164;48.818;2.322;2022-11-28T08:18:54;18.83;;;5.60;;
21999;SDS011;11164;48.818;2.322;2022-11-28T08:21:24;18.40;;;5.70;;
21999;SDS011;11164;48.818;2.322;2022-11-28T08:23:57;12.75;;;5.30;;
21999;SDS011;11164;48.818;2.322;2022-11-28T08:26:24;17.13;;;5.57;;
21999;SDS011;11164;48.818;2.322;2022-11-28T08:28:50;18.17;;;5.82;;
21999;SDS011;11164;48.818;2.322;2022-11-28T08:31:19;14.85;;;5.45;;
21999;SDS011;11164;48.818;2.322;2022-11-28T08:33:47;14.18;;;5.10;;
21999;SDS011;11164;48.818;2.322;2022-11-28T08:36:14;17.45;;;4.93;;
21999;SDS011;11164;48.818;2.322;2022-11-28T08:38:43;14.07;;;4.22;;
21999;SDS011;11164;48.818;2.322;2022-11-28T08:41:10;16.90;;;4.28;;
21999;SDS011;11164;48.818;2.322;2022-11-28T08:43:40;16.90;;;4.07;;
21999;SDS011;11164;48.818;2.322;2022-11-28T08:46:07;14.65;;;4.65;;
21999;SDS011;11164;48.818;2.322;2022-11-28T08:48:37;15.77;;;4.65;;
21999;SDS011;11164;48.818;2.322;2022-11-28T08:51:04;22.35;;;5.45;;
21999;SDS011;11164;48.818;2.322;2022-11-28T08:53:29;14.38;;;4.65;;
21999;SDS011;11164;48.818;2.322;2022-11-28T08:55:55;15.68;;;4.70;;
21999;SDS011;11164;48.818;2.322;2022-11-28T08:58:20;17.95;;;4.85;;
21999;SDS011;11164;48.818;2.322;2022-11-28T09:00:45;17.17;;;4.80;;
21999;SDS011;11164;48.818;2.322;2022-11-28T09:03:15;14.27;;;4.18;;
21999;SDS011;11164;48.818;2.322;2022-11-28T09:05:42;15.93;;;4.80;;
21999;SDS011;11164;48.818;2.322;2022-11-28T09:08:16;15.98;;;5.80;;
21999;SDS011;11164;48.818;2.322;2022-11-28T09:10:43;18.63;;;5.55;;
21999;SDS011;11164;48.818;2.322;2022-11-28T09:13:09;17.70;;;5.30;;
21999;SDS011;11164;48.818;2.322;2022-11-28T09:15:43;16.05;;;5.53;;
21999;SDS011;11164;48.818;2.322;2022-11-28T09:18:10;19.45;;;5.57;;
21999;SDS011;11164;48.818;2.322;2022-11-28T09:20:37;16.88;;;4.95;;
21999;SDS011;11164;48.818;2.322;2022-11-28T09:23:03;15.48;;;5.30;;
21999;SDS011;11164;48.818;2.322;2022-11-28T09:25:29;17.10;;;4.97;;
21999;SDS011;11164;48.818;2.322;2022-11-28T09:27:54;17.83;;;4.88;;
21999;SDS011;11164;48.818;2.322;2022-11-28T09:30:19;20.42;;;5.70;;
21999;SDS011;11164;48.818;2.322;2022-11-28T09:32:49;15.00;;;5.07;;
21999;SDS011;11164;48.818;2.322;2022-11-28T09:35:15;14.90;;;5.20;;
21999;SDS011;11164;48.818;2.322;2022-11-28T09:37:41;13.50;;;5.18;;
21999;SDS011;11164;48.818;2.322;2022-11-28T09:40:13;11.43;;;4.88;;
21999;SDS011;11164;48.818;2.322;2022-11-28T09:42:41;17.13;;;4.80;;
21999;SDS011;11164;48.818;2.322;2022-11-28T09:45:18;16.63;;;4.95;;
21999;SDS011;11164;48.818;2.322;2022-11-28T09:47:48;14.40;;;3.80;;
21999;SDS011;11164;48.818;2.322;2022-11-28T09:50:18;15.70;;;3.95;;
21999;SDS011;11164;48.818;2.322;2022-11-28T09:55:39;12.40;;;3.88;;
21999;SDS011;11164;48.818;2.322;2022-11-28T09:58:14;14.32;;;4.72;;
21999;SDS011;11164;48.818;2.322;2022-11-28T10:03:33;11.00;;;3.53;;
21999;SDS011;11164;48.818;2.322;2022-11-28T10:06:11;12.77;;;3.83;;
21999;SDS011;11164;48.818;2.322;2022-11-28T10:19:35;13.70;;;3.33;;
21999;SDS011;11164;48.818;2.322;2022-11-28T10:22:15;13.77;;;3.38;;
21999;SDS011;11164;48.818;2.322;2022-11-28T10:24:47;14.75;;;3.70;;
21999;SDS011;11164;48.818;2.322;2022-11-28T10:27:16;12.98;;;3.05;;
21999;SDS011;11164;48.818;2.322;2022-11-28T10:32:12;9.45;;;3.10;;
21999;SDS011;11164;48.818;2.322;2022-11-28T10:34:41;14.93;;;3.90;;
21999;SDS011;11164;48.818;2.322;2022-11-28T10:37:24;9.77;;;2.92;;
21999;SDS011;11164;48.818;2.322;2022-11-28T10:39:54;12.60;;;3.35;;
21999;SDS011;11164;48.818;2.322;2022-11-28T10:42:51;15.05;;;3.63;;
21999;SDS011;11164;48.818;2.322;2022-11-28T10:47:59;17.00;;;3.55;;
21999;SDS011;11164;48.818;2.322;2022-11-28T10:58:41;12.18;;;3.08;;
21999;SDS011;11164;48.818;2.322;2022-11-28T11:01:32;21.30;;;3.47;;
21999;SDS011;11164;48.818;2.322;2022-11-28T11:04:03;11.80;;;2.90;;
21999;SDS011;11164;48.818;2.322;2022-11-28T11:06:29;13.35;;;3.88;;
21999;SDS011;11164;48.818;2.322;2022-11-28T11:08:54;11.50;;;3.00;;
21999;SDS011;11164;48.818;2.322;2022-11-28T11:19:21;11.57;;;2.95;;
21999;SDS011;11164;48.818;2.322;2022-11-28T11:22:00;8.65;;;2.67;;
21999;SDS011;11164;48.818;2.322;2022-11-28T11:24:42;13.82;;;2.50;;
21999;SDS011;11164;48.818;2.322;2022-11-28T11:27:20;10.38;;;2.90;;
21999;SDS011;11164;48.818;2.322;2022-11-28T11:29:47;11.40;;;2.47;;
21999;SDS011;11164;48.818;2.322;2022-11-28T11:32:19;7.82;;;2.13;;
21999;SDS011;11164;48.818;2.322;2022-11-28T11:34:49;10.55;;;2.42;;
21999;SDS011;11164;48.818;2.322;2022-11-28T11:39:47;12.43;;;3.03;;
21999;SDS011;11164;48.818;2.322;2022-11-28T11:42:21;11.83;;;2.73;;
21999;SDS011;11164;48.818;2.322;2022-11-28T11:44:49;11.98;;;2.83;;
21999;SDS011;11164;48.818;2.322;2022-11-28T11:47:15;8.60;;;2.40;;
21999;SDS011;11164;48.818;2.322;2022-11-28T11:49:41;12.13;;;2.50;;
21999;SDS011;11164;48.818;2.322;2022-11-28T11:54:51;12.50;;;2.85;;
21999;SDS011;11164;48.818;2.322;2022-11-28T11:57:18;10.55;;;2.90;;
21999;SDS011;11164;48.818;2.322;2022-11-28T11:59:52;14.48;;;3.10;;
21999;SDS011;11164;48.818;2.322;2022-11-28T12:02:26;13.48;;;2.47;;
21999;SDS011;11164;48.818;2.322;2022-11-28T12:08:00;12.43;;;3.03;;
21999;SDS011;11164;48.818;2.322;2022-11-28T12:10:36;10.80;;;2.70;;
21999;SDS011;11164;48.818;2.322;2022-11-28T12:13:17;11.48;;;2.53;;
21999;SDS011;11164;48.818;2.322;2022-11-28T12:18:31;12.32;;;2.72;;
21999;SDS011;11164;48.818;2.322;2022-11-28T12:21:10;14.23;;;3.55;;
21999;SDS011;11164;48.818;2.322;2022-11-28T12:26:32;10.52;;;2.20;;
21999;SDS011;11164;48.818;2.322;2022-11-28T12:32:07;10.10;;;3.00;;
21999;SDS011;11164;48.818;2.322;2022-11-28T12:40:26;15.85;;;3.58;;
21999;SDS011;11164;48.818;2.322;2022-11-28T12:45:47;12.00;;;2.78;;
21999;SDS011;11164;48.818;2.322;2022-11-28T12:59:19;10.05;;;2.67;;
21999;SDS011;11164;48.818;2.322;2022-11-28T13:01:59;11.55;;;2.65;;
21999;SDS011;11164;48.818;2.322;2022-11-28T13:04:43;16.63;;;3.10;;
21999;SDS011;11164;48.818;2.322;2022-11-28T13:12:42;11.68;;;2.90;;
21999;SDS011;11164;48.818;2.322;2022-11-28T13:20:54;10.15;;;3.10;;
21999;SDS011;11164;48.818;2.322;2022-11-28T13:23:27;13.23;;;2.78;;
21999;SDS011;11164;48.818;2.322;2022-11-28T13:25:58;10.25;;;2.45;;
21999;SDS011;11164;48.818;2.322;2022-11-28T13:28:46;13.63;;;3.22;;
21999;SDS011;11164;48.818;2.322;2022-11-28T13:31:39;10.10;;;2.97;;
21999;SDS011;11164;48.818;2.322;2022-11-28T13:36:56;14.75;;;2.40;;
21999;SDS011;11164;48.818;2.322;2022-11-28T13:42:25;9.98;;;2.03;;
21999;SDS011;11164;48.818;2.322;2022-11-28T13:45:03;9.85;;;1.98;;
21999;SDS011;11164;48.818;2.322;2022-11-28T13:47:40;15.13;;;2.28;;
21999;SDS011;11164;48.818;2.322;2022-11-28T13:52:49;12.48;;;2.30;;
21999;SDS011;11164;48.818;2.322;2022-11-28T13:55:38;14.20;;;2.53;;
21999;SDS011;11164;48.818;2.322;2022-11-28T14:01:05;13.75;;;2.80;;
21999;SDS011;11164;48.818;2.322;2022-11-28T14:06:21;13.18;;;2.40;;
21999;SDS011;11164;48.818;2.322;2022-11-28T14:19:41;13.85;;;2.80;;
21999;SDS011;11164;48.818;2.322;2022-11-28T14:22:24;14.18;;;3.15;;
21999;SDS011;11164;48.818;2.322;2022-11-28T14:27:33;17.15;;;3.00;;
21999;SDS011;11164;48.818;2.322;2022-11-28T14:30:02;14.57;;;2.15;;
21999;SDS011;11164;48.818;2.322;2022-11-28T14:32:35;9.10;;;1.90;;
21999;SDS011;11164;48.818;2.322;2022-11-28T14:37:33;5.68;;;1.42;;
21999;SDS011;11164;48.818;2.322;2022-11-28T14:40:00;13.32;;;2.22;;
21999;SDS011;11164;48.818;2.322;2022-11-28T14:44:51;11.65;;;2.35;;
21999;SDS011;11164;48.818;2.322;2022-11-28T14:52:45;10.75;;;2.38;;
21999;SDS011;11164;48.818;2.322;2022-11-28T14:55:16;8.35;;;2.67;;
21999;SDS011;11164;48.818;2.322;2022-11-28T14:58:01;12.10;;;2.25;;
21999;SDS011;11164;48.818;2.322;2022-11-28T15:00:37;9.70;;;2.38;;
21999;SDS011;11164;48.818;2.322;2022-11-28T15:03:23;12.18;;;2.30;;
21999;SDS011;11164;48.818;2.322;2022-11-28T15:06:35;12.10;;;2.30;;
21999;SDS011;11164;48.818;2.322;2022-11-28T15:08:50;11.70;;;1.95;;
21999;SDS011;11164;48.818;2.322;2022-11-28T15:11:40;10.43;;;2.50;;
21999;SDS011;11164;48.818;2.322;2022-11-28T15:14:22;14.00;;;3.58;;
21999;SDS011;11164;48.818;2.322;2022-11-28T15:16:54;8.60;;;2.17;;
21999;SDS011;11164;48.818;2.322;2022-11-28T15:21:53;14.88;;;3.13;;
21999;SDS011;11164;48.818;2.322;2022-11-28T15:26:48;14.57;;;2.60;;
21999;SDS011;11164;48.818;2.322;2022-11-28T15:29:26;15.15;;;3.47;;
21999;SDS011;11164;48.818;2.322;2022-11-28T15:31:53;10.05;;;2.80;;
21999;SDS011;11164;48.818;2.322;2022-11-28T15:34:27;10.05;;;2.00;;
21999;SDS011;11164;48.818;2.322;2022-11-28T15:37:03;12.27;;;2.75;;
21999;SDS011;11164;48.818;2.322;2022-11-28T15:39:31;14.30;;;2.78;;
21999;SDS011;11164;48.818;2.322;2022-11-28T15:42:04;12.23;;;2.53;;
21999;SDS011;11164;48.818;2.322;2022-11-28T15:44:32;12.43;;;2.63;;
21999;SDS011;11164;48.818;2.322;2022-11-28T15:47:00;11.55;;;2.38;;
21999;SDS011;11164;48.818;2.322;2022-11-28T15:51:59;13.88;;;2.95;;
21999;SDS011;11164;48.818;2.322;2022-11-28T15:54:38;11.80;;;2.53;;
21999;SDS011;11164;48.818;2.322;2022-11-28T15:57:05;10.63;;;2.97;;
21999;SDS011;11164;48.818;2.322;2022-11-28T15:59:41;15.25;;;2.92;;
21999;SDS011;11164;48.818;2.322;2022-11-28T16:02:12;9.82;;;3.30;;
21999;SDS011;11164;48.818;2.322;2022-11-28T16:04:47;9.95;;;2.65;;
21999;SDS011;11164;48.818;2.322;2022-11-28T16:07:33;9.88;;;2.85;;
21999;SDS011;11164;48.818;2.322;2022-11-28T16:10:00;10.63;;;3.08;;
21999;SDS011;11164;48.818;2.322;2022-11-28T16:12:29;9.52;;;2.88;;
21999;SDS011;11164;48.818;2.322;2022-11-28T16:14:55;10.88;;;3.60;;
21999;SDS011;11164;48.818;2.322;2022-11-28T16:17:29;14.57;;;3.45;;
21999;SDS011;11164;48.818;2.322;2022-11-28T16:19:57;12.40;;;3.10;;
21999;SDS011;11164;48.818;2.322;2022-11-28T16:22:28;13.68;;;4.07;;
21999;SDS011;11164;48.818;2.322;2022-11-28T16:25:08;10.82;;;4.30;;
21999;SDS011;11164;48.818;2.322;2022-11-28T16:27:38;12.43;;;3.60;;
21999;SDS011;11164;48.818;2.322;2022-11-28T16:32:53;12.45;;;3.42;;
21999;SDS011;11164;48.818;2.322;2022-11-28T16:35:35;14.30;;;3.65;;
21999;SDS011;11164;48.818;2.322;2022-11-28T16:40:30;15.55;;;4.22;;
21999;SDS011;11164;48.818;2.322;2022-11-28T16:42:55;15.27;;;4.50;;
21999;SDS011;11164;48.818;2.322;2022-11-28T16:45:30;12.07;;;3.53;;
21999;SDS011;11164;48.818;2.322;2022-11-28T16:48:05;15.50;;;4.30;;
21999;SDS011;11164;48.818;2.322;2022-11-28T16:50:33;15.75;;;4.55;;
21999;SDS011;11164;48.818;2.322;2022-11-28T16:52:59;15.32;;;4.13;;
21999;SDS011;11164;48.818;2.322;2022-11-28T16:58:01;18.25;;;4.22;;
21999;SDS011;11164;48.818;2.322;2022-11-28T17:00:32;14.02;;;4.57;;
21999;SDS011;11164;48.818;2.322;2022-11-28T17:02:58;13.48;;;4.35;;
21999;SDS011;11164;48.818;2.322;2022-11-28T17:05:24;15.07;;;4.65;;
21999;SDS011;11164;48.818;2.322;2022-11-28T17:07:49;15.13;;;4.45;;
21999;SDS011;11164;48.818;2.322;2022-11-28T17:10:15;13.35;;;4.28;;
21999;SDS011;11164;48.818;2.322;2022-11-28T17:12:40;15.95;;;4.50;;
21999;SDS011;11164;48.818;2.322;2022-11-28T17:15:08;15.52;;;4.50;;
21999;SDS011;11164;48.818;2.322;2022-11-28T17:17:39;11.10;;;4.10;;
21999;SDS011;11164;48.818;2.322;2022-11-28T17:20:04;15.90;;;4.78;;
21999;SDS011;11164;48.818;2.322;2022-11-28T17:22:37;9.52;;;4.10;;
21999;SDS011;11164;48.818;2.322;2022-11-28T17:25:05;16.67;;;4.88;;
21999;SDS011;11164;48.818;2.322;2022-11-28T17:27:31;14.32;;;5.50;;
21999;SDS011;11164;48.818;2.322;2022-11-28T17:29:57;15.52;;;4.82;;
21999;SDS011;11164;48.818;2.322;2022-11-28T17:32:22;10.18;;;4.22;;
21999;SDS011;11164;48.818;2.322;2022-11-28T17:34:48;15.07;;;5.07;;
21999;SDS011;11164;48.818;2.322;2022-11-28T17:37:13;17.17;;;7.63;;
21999;SDS011;11164;48.818;2.322;2022-11-28T17:39:39;23.08;;;10.60;;
21999;SDS011;11164;48.818;2.322;2022-11-28T17:42:24;79.43;;;44.83;;
21999;SDS011;11164;48.818;2.322;2022-11-28T17:44:49;33.65;;;18.63;;
21999;SDS011;11164;48.818;2.322;2022-11-28T17:47:15;18.20;;;7.90;;
21999;SDS011;11164;48.818;2.322;2022-11-28T17:49:40;17.73;;;5.63;;
21999;SDS011;11164;48.818;2.322;2022-11-28T17:52:06;16.42;;;7.35;;
21999;SDS011;11164;48.818;2.322;2022-11-28T17:54:31;14.68;;;6.68;;
21999;SDS011;11164;48.818;2.322;2022-11-28T17:56:56;15.90;;;5.75;;